Time;durP1;ratioP1;P1;durP2;ratioP2;P2;SDS_P1;SDS_P2;PMS_P1;PMS_P2;Temp;Humidity;BMP_temperature;BMP_pressure;BME280_temperature;BME280_humidity;BME280_pressure;Samples;Min_cycle;Max_cycle;Signal;HPM_P1;HPM_P2
2022/07/22 00:00:11;;;;;;;;;22.75;19.25;;;;;23.67;56.75;101460.44;4918350;28;45390;-69
2022/07/22 00:02:36;;;;;;;;;27.75;19.00;;;;;23.76;56.70;101471.22;4918019;28;45553;-67
2022/07/22 00:05:02;;;;;;;;;22.00;20.67;;;;;23.72;56.99;101469.44;4917958;28;45889;-61
2022/07/22 00:07:28;;;;;;;;;22.67;19.00;;;;;23.63;56.87;101475.09;4917829;28;45430;-67
2022/07/22 00:09:53;;;;;;;;;22.67;18.67;;;;;23.50;56.95;101449.81;4908675;28;45593;-69
2022/07/22 00:12:18;;;;;;;;;25.50;21.75;;;;;23.59;57.09;101467.84;4923695;28;45597;-70
2022/07/22 00:14:44;;;;;;;;;21.50;21.00;;;;;23.56;57.11;101466.09;4917725;28;46316;-68
2022/07/22 00:17:09;;;;;;;;;20.00;18.33;;;;;23.35;57.17;101440.06;4925485;28;45516;-61
2022/07/22 00:19:35;;;;;;;;;22.00;18.33;;;;;23.35;57.30;101443.69;4923566;28;45402;-60
2022/07/22 00:22:00;;;;;;;;;19.00;18.00;;;;;23.39;57.02;101449.97;4918004;28;45671;-61
2022/07/22 00:24:26;;;;;;;;;21.25;19.75;;;;;23.33;57.26;101447.38;4917700;28;45549;-67
2022/07/22 00:26:51;;;;;;;;;23.33;19.33;;;;;23.29;56.98;101434.69;4917666;28;45450;-73
2022/07/22 00:29:16;;;;;;;;;19.33;16.33;;;;;23.44;56.68;101464.44;4918120;28;45416;-64
2022/07/22 00:31:42;;;;;;;;;20.33;18.00;;;;;23.42;57.22;101451.78;4914326;28;45316;-69
2022/07/22 00:34:07;;;;;;;;;25.75;21.50;;;;;23.40;56.94;101456.34;4917733;28;46357;-67
2022/07/22 00:36:32;;;;;;;;;22.33;17.67;;;;;23.40;56.85;101453.63;4918553;28;45411;-62
2022/07/22 00:38:58;;;;;;;;;22.67;20.33;;;;;23.17;56.99;101417.59;4920204;28;45916;-60
2022/07/22 00:41:24;;;;;;;;;18.67;15.33;;;;;23.14;57.52;101423.09;4920401;28;45484;-66
2022/07/22 00:44:04;;;;;;;;;13.67;13.67;;;;;23.29;57.04;101451.06;4919969;28;46152;-66
2022/07/22 00:46:30;;;;;;;;;15.00;12.67;;;;;23.09;57.48;101429.53;4918237;28;45564;-70
2022/07/22 00:48:57;;;;;;;;;18.67;18.67;;;;;23.22;57.32;101449.34;4917634;28;45244;-63
2022/07/22 00:51:24;;;;;;;;;19.33;16.33;;;;;23.01;57.49;101402.34;4917743;28;45520;-70
2022/07/22 00:53:50;;;;;;;;;18.00;14.00;;;;;23.12;57.45;101433.13;4900046;28;45421;-69
2022/07/22 00:56:17;;;;;;;;;17.67;15.67;;;;;22.90;57.91;101418.88;4907644;28;45350;-66
2022/07/22 00:58:44;;;;;;;;;16.00;16.00;;;;;22.94;57.77;101423.34;4922401;28;45495;-68
2022/07/22 01:01:10;;;;;;;;;16.33;16.00;;;;;22.62;58.09;101380.22;4917402;28;45368;-60
2022/07/22 01:03:36;;;;;;;;;19.67;14.33;;;;;22.88;57.99;101436.16;4917212;28;45993;-66
2022/07/22 01:06:01;;;;;;;;;15.67;15.67;;;;;22.79;58.11;101421.75;4916969;28;45454;-70
2022/07/22 01:08:27;;;;;;;;;16.00;16.00;;;;;22.25;58.08;101332.53;4917231;28;45398;-63
2022/07/22 01:10:52;;;;;;;;;23.00;15.25;;;;;22.33;57.88;101347.94;4920023;28;45890;-65
2022/07/22 01:13:18;;;;;;;;;18.00;14.67;;;;;22.83;57.93;101425.31;4927965;28;45485;-68
2022/07/22 01:15:43;;;;;;;;;15.67;15.33;;;;;22.63;57.81;101406.53;4917022;28;45402;-61
2022/07/22 01:18:08;;;;;;;;;17.00;15.67;;;;;22.73;58.04;101416.38;4930464;28;45523;-61
2022/07/22 01:20:37;;;;;;;;;14.67;14.67;;;;;22.38;57.90;101359.66;4917576;28;45469;-62
2022/07/22 01:23:02;;;;;;;;;12.33;10.33;;;;;22.76;57.92;101427.22;4917178;28;46165;-62
2022/07/22 01:25:28;;;;;;;;;14.00;12.00;;;;;22.54;57.89;101399.38;4929291;28;45443;-67
2022/07/22 01:27:55;;;;;;;;;17.33;13.67;;;;;22.69;58.07;101421.91;4916980;28;45400;-66
2022/07/22 01:30:20;;;;;;;;;18.67;18.67;;;;;22.67;57.88;101429.16;4916825;28;45228;-69
2022/07/22 01:32:45;;;;;;;;;20.33;14.33;;;;;22.58;57.79;101403.84;4916661;28;46035;-69
2022/07/22 01:35:11;;;;;;;;;19.33;16.33;;;;;22.69;57.63;101421.91;4916650;28;45432;-67
2022/07/22 01:37:36;;;;;;;;;13.00;13.00;;;;;22.48;57.69;101394.00;4917133;28;45426;-68
2022/07/22 01:40:02;;;;;;;;;16.00;14.67;;;;;22.57;57.71;101412.03;4917125;28;45637;-72
2022/07/22 01:42:28;;;;;;;;;14.67;12.67;;;;;22.63;57.68;101421.03;4916517;28;46087;-68
2022/07/22 01:44:53;;;;;;;;;13.67;13.67;;;;;22.65;57.60;101426.47;4916481;28;45394;-70
2022/07/22 01:47:19;;;;;;;;;16.67;15.00;;;;;22.42;57.51;101375.94;4916680;28;45490;-61
2022/07/22 01:49:44;;;;;;;;;14.00;12.00;;;;;22.66;57.55;101421.94;4917126;28;45343;-66
2022/07/22 01:52:09;;;;;;;;;13.33;12.67;;;;;22.48;57.58;101402.19;4916539;28;46556;-61
2022/07/22 01:54:35;;;;;;;;;16.00;15.67;;;;;22.50;57.47;101402.16;4916715;28;45375;-64
2022/07/22 01:57:01;;;;;;;;;17.33;12.67;;;;;22.49;57.56;101405.78;4916610;28;45386;-68
2022/07/22 01:59:26;;;;;;;;;13.00;10.00;;;;;22.55;57.52;101417.50;4916835;28;45378;-70
2022/07/22 02:01:52;;;;;;;;;14.33;13.33;;;;;22.54;57.65;101418.44;4916176;28;45372;-64
2022/07/22 02:04:17;;;;;;;;;13.00;13.00;;;;;22.24;57.57;101360.69;4917704;28;45503;-63
2022/07/22 02:06:43;;;;;;;;;15.67;14.33;;;;;22.43;57.55;101406.78;4918792;28;45288;-61
2022/07/22 02:09:08;;;;;;;;;13.67;13.67;;;;;22.24;57.80;101365.22;4919200;28;45358;-59
2022/07/22 02:11:33;;;;;;;;;15.67;15.67;;;;;22.40;57.72;101409.53;4917405;28;45432;-61
2022/07/22 02:13:59;;;;;;;;;16.00;13.33;;;;;22.39;57.58;101405.00;4916562;28;45300;-68
2022/07/22 02:16:24;;;;;;;;;15.67;13.00;;;;;22.38;57.79;101408.66;4904380;28;45379;-66
2022/07/22 02:18:50;;;;;;;;;12.67;12.67;;;;;22.24;57.67;101379.75;4928111;28;45533;-66
2022/07/22 02:21:16;;;;;;;;;14.67;13.33;;;;;22.38;57.57;101406.81;4915882;28;46963;-69
2022/07/22 02:23:41;;;;;;;;;13.33;9.67;;;;;22.40;57.57;101404.09;4916392;28;46533;-61
2022/07/22 02:26:07;;;;;;;;;14.67;14.00;;;;;22.39;57.43;101405.00;4916320;28;45399;-69
2022/07/22 02:28:32;;;;;;;;;13.00;11.67;;;;;22.40;57.58;101404.97;4916317;28;45457;-65
2022/07/22 02:30:57;;;;;;;;;13.33;10.67;;;;;22.38;57.60;101411.38;4916111;28;45946;-64
2022/07/22 02:33:23;;;;;;;;;14.67;13.67;;;;;22.34;57.57;101407.81;4916002;28;45397;-64
2022/07/22 02:35:48;;;;;;;;;12.00;11.00;;;;;22.33;57.56;101410.53;4916403;28;45410;-69
2022/07/22 02:38:13;;;;;;;;;14.00;12.67;;;;;22.27;57.72;101411.47;4916506;28;45501;-70
2022/07/22 02:40:39;;;;;;;;;12.00;12.00;;;;;22.14;57.59;101383.50;4917292;28;47449;-70
2022/07/22 02:43:06;;;;;;;;;16.67;14.00;;;;;22.26;57.66;101417.84;4924323;28;45349;-65
2022/07/22 02:45:31;;;;;;;;;13.00;13.00;;;;;22.11;57.63;101383.53;4916007;28;45560;-72
2022/07/22 02:47:57;;;;;;;;;19.67;13.00;;;;;22.18;57.53;101385.25;4916232;28;45462;-67
2022/07/22 02:50:23;;;;;;;;;9.00;9.00;;;;;22.32;57.16;101404.16;4916107;28;46228;-68
2022/07/22 02:52:48;;;;;;;;;12.33;11.67;;;;;22.32;57.36;101414.16;4916099;28;45715;-69
2022/07/22 02:55:14;;;;;;;;;11.67;11.67;;;;;22.29;57.35;101406.97;4915898;28;45551;-63
2022/07/22 02:57:40;;;;;;;;;14.33;13.00;;;;;22.13;57.55;101387.13;4916170;28;45539;-63
2022/07/22 03:00:08;;;;;;;;;11.67;11.00;;;;;22.08;57.46;101372.69;4915969;28;46276;-68
2022/07/22 03:02:34;;;;;;;;;12.33;12.33;;;;;22.23;57.44;101402.44;4915530;28;45484;-68
2022/07/22 03:04:59;;;;;;;;;8.33;8.33;;;;;22.00;57.73;101366.41;4915835;28;45303;-62
2022/07/22 03:07:24;;;;;;;;;22.50;19.50;;;;;22.17;57.66;101388.88;4916039;28;45262;-63
2022/07/22 03:09:50;;;;;;;;;15.00;12.33;;;;;22.18;57.68;101390.69;4915555;28;45418;-72
2022/07/22 03:12:15;;;;;;;;;14.00;10.00;;;;;22.02;57.64;101367.28;4915483;28;45373;-71
2022/07/22 03:14:40;;;;;;;;;13.67;11.33;;;;;21.97;57.82;101352.84;4915895;28;49077;-71
2022/07/22 03:17:06;;;;;;;;;14.67;13.00;;;;;22.04;57.57;101366.38;4923366;28;45298;-68
2022/07/22 03:19:31;;;;;;;;;14.33;14.33;;;;;21.66;57.70;101318.72;4922040;28;45546;-68
2022/07/22 03:21:56;;;;;;;;;15.00;12.67;;;;;22.11;57.71;101388.97;4915522;28;45284;-60
2022/07/22 03:24:22;;;;;;;;;12.67;11.00;;;;;22.09;57.55;101386.28;4915301;28;47268;-64
2022/07/22 03:26:47;;;;;;;;;18.67;13.00;;;;;22.10;57.64;101403.50;4915460;28;45347;-69
2022/07/22 03:29:12;;;;;;;;;15.67;13.33;;;;;21.94;57.65;101364.66;4916883;28;45607;-71
2022/07/22 03:31:38;;;;;;;;;11.67;10.67;;;;;22.12;57.52;101401.66;4920960;28;45490;-68
2022/07/22 03:34:03;;;;;;;;;17.33;14.67;;;;;22.07;57.82;101389.91;4921433;28;45337;-71
2022/07/22 03:36:29;;;;;;;;;14.00;12.00;;;;;21.72;57.64;101332.25;4921764;28;45366;-61
2022/07/22 03:38:55;;;;;;;;;14.00;12.00;;;;;22.04;57.51;101382.72;4920355;28;47231;-67
2022/07/22 03:41:20;;;;;;;;;12.67;12.67;;;;;21.82;57.55;101348.47;4927518;28;45545;-70
2022/07/22 03:43:47;;;;;;;;;15.00;12.67;;;;;21.95;57.88;101379.19;4918869;28;45509;-65
2022/07/22 03:46:12;;;;;;;;;14.67;13.00;;;;;21.89;58.14;101370.16;4919323;28;45561;-71
2022/07/22 03:48:37;;;;;;;;;12.67;12.33;;;;;21.95;57.79;101401.84;4918370;28;45571;-60
2022/07/22 03:51:03;;;;;;;;;14.00;14.00;;;;;21.93;57.95;101392.78;4918358;28;45434;-66
2022/07/22 03:53:28;;;;;;;;;19.00;13.00;;;;;21.94;57.99;101388.25;4918755;28;45496;-66
2022/07/22 03:55:54;;;;;;;;;14.00;10.33;;;;;21.77;57.88;101374.81;4919502;28;45398;-60
2022/07/22 03:58:19;;;;;;;;;15.00;13.67;;;;;21.69;58.07;101362.19;4926694;28;45945;-62
2022/07/22 04:00:45;;;;;;;;;17.33;15.67;;;;;21.41;58.09;101322.56;4918080;28;45511;-67
2022/07/22 04:03:10;;;;;;;;;16.33;16.33;;;;;21.79;58.03;101394.75;4918226;28;45398;-62
2022/07/22 04:05:35;;;;;;;;;18.33;14.67;;;;;21.78;58.28;101388.41;4918500;28;45384;-68
2022/07/22 04:08:01;;;;;;;;;13.33;13.33;;;;;21.58;58.29;101353.25;4918399;28;45557;-71
2022/07/22 04:10:26;;;;;;;;;16.67;13.00;;;;;21.84;58.00;101392.88;4918046;28;45427;-62
2022/07/22 04:12:51;;;;;;;;;15.67;12.67;;;;;21.67;58.00;101372.19;4918114;28;45451;-63
2022/07/22 04:15:17;;;;;;;;;16.00;15.67;;;;;21.79;58.15;101392.91;4918113;28;45419;-64
2022/07/22 04:17:42;;;;;;;;;12.67;12.67;;;;;21.04;57.90;101274.00;4913345;28;46962;-64
2022/07/22 04:20:08;;;;;;;;;17.33;13.67;;;;;21.64;58.37;101376.75;4917780;28;45506;-64
2022/07/22 04:22:33;;;;;;;;;12.00;11.67;;;;;21.68;58.63;101381.25;4918139;28;45542;-59
2022/07/22 04:24:59;;;;;;;;;12.33;12.33;;;;;21.66;58.37;101386.72;4917979;28;45616;-66
2022/07/22 04:27:24;;;;;;;;;11.00;11.00;;;;;21.56;58.32;101365.94;4918000;28;46113;-62
2022/07/22 04:29:49;;;;;;;;;11.33;10.33;;;;;21.50;58.20;101357.88;4917725;28;45501;-62
2022/07/22 04:32:15;;;;;;;;;15.67;12.67;;;;;21.54;58.77;101373.22;4917930;28;45528;-61
2022/07/22 04:34:41;;;;;;;;;13.67;12.33;;;;;21.29;58.42;101342.59;4918337;28;45533;-68
2022/07/22 04:37:06;;;;;;;;;13.67;11.33;;;;;21.46;58.56;101354.22;4917480;28;45242;-67
2022/07/22 04:39:32;;;;;;;;;12.33;10.67;;;;;21.51;58.44;101360.56;4917306;28;45363;-71
2022/07/22 04:41:57;;;;;;;;;13.00;10.33;;;;;21.51;58.35;101371.44;4917783;28;45823;-66
2022/07/22 04:44:22;;;;;;;;;15.33;14.00;;;;;21.60;58.39;101375.00;4917902;28;45449;-64
2022/07/22 04:46:48;;;;;;;;;17.67;13.00;;;;;21.45;58.25;101344.28;4917147;28;49762;-68
2022/07/22 04:49:13;;;;;;;;;14.67;12.00;;;;;21.62;58.43;101370.44;4917410;28;45381;-65
2022/07/22 04:51:38;;;;;;;;;15.67;12.00;;;;;21.64;58.25;101369.50;4917738;28;45392;-67
2022/07/22 04:54:04;;;;;;;;;14.33;14.33;;;;;21.55;58.03;101353.28;4917776;28;45689;-64
2022/07/22 04:56:29;;;;;;;;;12.00;11.67;;;;;21.50;58.06;101342.44;4917508;28;45388;-61
2022/07/22 04:58:55;;;;;;;;;17.33;14.00;;;;;21.67;58.00;101372.19;4918914;28;51563;-63
2022/07/22 05:01:21;;;;;;;;;14.00;11.67;;;;;21.66;57.96;101359.53;4919508;28;45298;-67
2022/07/22 05:03:46;;;;;;;;;11.33;11.33;;;;;21.63;57.89;101364.06;4918920;28;45525;-61
2022/07/22 05:06:12;;;;;;;;;14.00;13.33;;;;;21.58;57.94;101357.78;4917604;28;45435;-65
2022/07/22 05:08:37;;;;;;;;;14.00;14.00;;;;;21.42;58.08;101321.66;4917194;28;45393;-63
2022/07/22 05:11:02;;;;;;;;;16.67;13.67;;;;;21.49;58.11;101334.31;4917108;28;45453;-59
2022/07/22 05:13:28;;;;;;;;;19.00;12.00;;;;;21.68;58.10;101357.69;4917340;28;45270;-67
2022/07/22 05:15:53;;;;;;;;;14.00;13.33;;;;;21.56;57.88;101344.19;4916896;28;46025;-60
2022/07/22 05:18:19;;;;;;;;;14.33;14.00;;;;;21.64;58.00;101361.34;4930561;28;45311;-66
2022/07/22 05:20:44;;;;;;;;;15.67;14.00;;;;;21.53;58.00;101360.53;4917301;28;45373;-65
2022/07/22 05:23:10;;;;;;;;;16.67;14.33;;;;;21.04;58.38;101276.69;4917205;28;45272;-65
2022/07/22 05:25:35;;;;;;;;;13.33;11.67;;;;;21.54;58.13;101359.63;4917146;28;46189;-67
2022/07/22 05:28:00;;;;;;;;;13.33;10.67;;;;;21.33;58.30;101309.03;4917229;28;45335;-64
2022/07/22 05:30:26;;;;;;;;;13.00;13.00;;;;;21.60;58.17;101345.09;4917187;28;45447;-66
2022/07/22 05:32:52;;;;;;;;;15.00;14.33;;;;;21.43;58.02;101318.00;4917336;28;45450;-62
2022/07/22 05:35:18;;;;;;;;;12.67;12.67;;;;;21.70;57.82;101341.34;4916696;28;45371;-64
2022/07/22 05:37:43;;;;;;;;;24.00;20.50;;;;;21.56;57.87;101324.25;4916472;28;45593;-61
2022/07/22 05:40:09;;;;;;;;;16.33;14.67;;;;;21.81;57.84;101352.09;4916403;28;45531;-67
2022/07/22 05:42:34;;;;;;;;;17.33;17.00;;;;;21.82;57.42;101354.81;4916944;28;45423;-68
2022/07/22 05:45:00;;;;;;;;;13.33;11.67;;;;;21.76;57.33;101346.69;4916622;28;46588;-66
2022/07/22 05:47:25;;;;;;;;;16.67;13.67;;;;;21.85;57.42;101352.06;4916487;28;45494;-71
2022/07/22 05:49:50;;;;;;;;;15.67;13.33;;;;;21.69;57.46;101315.06;4916434;28;45415;-65
2022/07/22 05:52:16;;;;;;;;;30.50;26.75;;;;;21.93;57.27;101351.97;4915724;28;45340;-69
2022/07/22 05:54:41;;;;;;;;;17.33;13.33;;;;;21.91;57.26;101353.84;4916486;28;46053;-70
2022/07/22 05:57:09;;;;;;;;;17.00;17.00;;;;;21.90;57.50;101357.47;4916302;28;45562;-71
2022/07/22 05:59:35;;;;;;;;;14.33;14.00;;;;;21.85;57.11;101333.00;4916982;28;45586;-63
2022/07/22 06:02:03;;;;;;;;;17.67;16.00;;;;;21.88;57.30;101343.88;4916535;28;45494;-62
2022/07/22 06:04:29;;;;;;;;;15.33;14.33;;;;;21.63;57.35;101304.25;4916317;28;45510;-64
2022/07/22 06:06:54;;;;;;;;;16.33;13.00;;;;;21.83;57.32;101343.03;4916067;28;45461;-68
2022/07/22 06:09:19;;;;;;;;;15.33;15.33;;;;;21.92;57.21;101330.22;4916652;28;45535;-69
2022/07/22 06:11:45;;;;;;;;;13.33;12.67;;;;;21.86;57.50;101331.19;4916638;28;45584;-69
2022/07/22 06:14:10;;;;;;;;;20.00;16.67;;;;;21.78;57.45;101325.84;4916050;28;45435;-70
2022/07/22 06:16:36;;;;;;;;;16.33;13.00;;;;;21.70;57.44;101317.75;4919723;28;45504;-66
2022/07/22 06:19:02;;;;;;;;;15.00;14.33;;;;;21.92;57.47;101344.72;4926185;28;45407;-66
2022/07/22 06:21:27;;;;;;;;;15.33;14.67;;;;;21.97;57.22;101358.28;4916590;28;45576;-67
2022/07/22 06:23:53;;;;;;;;;12.00;11.67;;;;;21.89;57.55;101340.25;4915782;28;47138;-68
2022/07/22 06:26:18;;;;;;;;;22.33;16.33;;;;;22.05;57.05;101353.66;4916189;28;45623;-65
2022/07/22 06:28:44;;;;;;;;;18.00;15.00;;;;;22.11;56.76;101348.16;4915978;28;45443;-60
2022/07/22 06:31:09;;;;;;;;;19.00;19.00;;;;;21.89;56.96;101318.47;4915993;28;45556;-68
2022/07/22 06:33:34;;;;;;;;;15.33;13.33;;;;;22.11;56.87;101341.78;4915715;28;45448;-68
2022/07/22 06:36:00;;;;;;;;;14.67;13.33;;;;;21.79;56.74;101278.66;4915690;28;45451;-60
2022/07/22 06:38:26;;;;;;;;;17.33;17.00;;;;;22.11;56.71;101317.28;4916853;28;45508;-60
2022/07/22 06:40:51;;;;;;;;;16.33;14.00;;;;;22.06;56.46;101299.22;4928720;28;45337;-58
2022/07/22 06:43:16;;;;;;;;;13.33;13.00;;;;;22.45;56.03;101355.91;4915883;28;48384;-62
2022/07/22 06:45:42;;;;;;;;;16.67;13.33;;;;;22.50;55.98;101350.41;4915795;28;45375;-62
2022/07/22 06:48:07;;;;;;;;;19.00;17.33;;;;;22.35;55.95;101325.19;4915552;28;45261;-61
2022/07/22 06:50:32;;;;;;;;;20.67;14.67;;;;;22.32;56.00;101308.88;4916049;28;45433;-65
2022/07/22 06:52:58;;;;;;;;;23.33;14.00;;;;;22.52;55.91;101343.13;4915530;28;46027;-65
2022/07/22 06:55:23;;;;;;;;;12.00;12.00;;;;;22.57;55.74;101343.94;4915270;28;45290;-71
2022/07/22 06:57:48;;;;;;;;;19.33;16.33;;;;;22.58;55.50;101338.50;4915464;28;45539;-65
2022/07/22 07:00:14;;;;;;;;;24.33;22.00;;;;;22.78;55.50;101365.44;4915540;28;45377;-65
2022/07/22 07:02:40;;;;;;;;;18.00;15.33;;;;;22.73;55.20;101342.81;4915143;28;47422;-69
2022/07/22 07:05:05;;;;;;;;;16.00;16.00;;;;;22.86;54.90;101349.00;4918590;28;45312;-63
2022/07/22 07:07:31;;;;;;;;;17.33;17.33;;;;;22.89;54.76;101359.84;4918561;28;45543;-64
2022/07/22 07:09:56;;;;;;;;;19.33;15.33;;;;;23.08;54.88;101370.50;4918677;28;45526;-62
2022/07/22 07:12:22;;;;;;;;;17.33;15.67;;;;;23.08;54.50;101356.88;4914205;28;49401;-62
2022/07/22 07:14:47;;;;;;;;;20.67;17.33;;;;;23.21;54.40;101346.66;4918470;28;45481;-64
2022/07/22 07:17:15;;;;;;;;;21.00;19.67;;;;;23.24;54.60;101347.50;4926496;28;45244;-66
2022/07/22 07:19:40;;;;;;;;;13.33;13.00;;;;;23.30;54.15;101331.06;4923564;28;45454;-62
2022/07/22 07:22:05;;;;;;;;;22.33;18.00;;;;;23.40;54.00;101325.47;4918050;28;46216;-63
2022/07/22 07:24:31;;;;;;;;;19.33;15.00;;;;;23.14;54.07;101264.09;4917973;28;45289;-67
2022/07/22 07:26:56;;;;;;;;;22.25;19.25;;;;;23.52;53.65;101319.78;4901123;28;45372;-67
2022/07/22 07:29:22;;;;;;;;;17.00;14.67;;;;;23.64;53.36;101330.47;4919007;28;45375;-62
2022/07/22 07:31:48;;;;;;;;;19.33;16.67;;;;;23.68;52.98;101332.19;4918097;28;46852;-61
2022/07/22 07:34:14;;;;;;;;;16.00;15.33;;;;;23.76;53.36;101329.34;4918119;28;45291;-59
2022/07/22 07:36:40;;;;;;;;;19.33;16.00;;;;;23.82;52.88;101328.31;4918006;28;45668;-62
2022/07/22 07:39:06;;;;;;;;;15.67;12.33;;;;;23.96;52.83;101330.81;4918454;28;45514;-61
2022/07/22 07:41:31;;;;;;;;;18.00;17.00;;;;;24.07;52.31;101329.66;4918222;28;46084;-62
2022/07/22 07:43:56;;;;;;;;;18.33;18.33;;;;;23.94;52.41;101291.72;4918247;28;45525;-62
2022/07/22 07:46:22;;;;;;;;;17.00;15.33;;;;;24.12;51.73;101309.53;4917874;28;45358;-61
2022/07/22 07:48:48;;;;;;;;;20.33;17.33;;;;;24.34;51.31;101335.47;4918167;28;45482;-62
2022/07/22 07:51:14;;;;;;;;;18.00;16.33;;;;;24.26;51.61;101321.97;4917576;28;46510;-62
2022/07/22 07:53:39;;;;;;;;;20.00;17.33;;;;;24.44;51.29;101339.78;4917976;28;45633;-62
2022/07/22 07:56:05;;;;;;;;;20.67;15.67;;;;;24.47;51.54;101336.09;4907469;28;45383;-61
2022/07/22 07:58:30;;;;;;;;;19.67;18.00;;;;;24.31;51.30;101307.34;4926178;28;45530;-66
2022/07/22 08:00:55;;;;;;;;;18.33;18.33;;;;;24.56;51.46;101354.16;4917429;28;46237;-63
2022/07/22 08:03:21;;;;;;;;;29.50;26.75;;;;;24.60;50.82;101348.59;4917296;28;45424;-63
2022/07/22 08:05:46;;;;;;;;;29.33;19.33;;;;;24.72;50.59;101344.69;4917493;28;45452;-66
2022/07/22 08:08:12;;;;;;;;;24.25;19.75;;;;;24.68;50.92;101315.59;4918133;28;45618;-62
2022/07/22 08:10:37;;;;;;;;;20.00;19.00;;;;;24.88;50.14;101342.50;4917835;28;46100;-62
2022/07/22 08:13:04;;;;;;;;;18.00;16.33;;;;;24.89;50.12;101330.59;4917541;28;45382;-70
2022/07/22 08:15:29;;;;;;;;;18.33;17.33;;;;;24.85;49.84;101290.63;4917329;28;45457;-64
2022/07/22 08:17:55;;;;;;;;;19.33;16.67;;;;;25.17;49.95;101332.66;4931652;28;45517;-62
2022/07/22 08:20:23;;;;;;;;;19.33;19.33;;;;;25.09;49.83;101297.31;4917593;28;45869;-64
2022/07/22 08:22:48;;;;;;;;;20.00;19.33;;;;;25.33;49.21;101325.03;4918188;28;45470;-71
2022/07/22 08:25:14;;;;;;;;;20.33;16.67;;;;;25.15;49.33;101286.22;4917392;28;45467;-68
2022/07/22 08:27:39;;;;;;;;;19.00;15.33;;;;;25.44;49.51;101317.44;4917902;28;45624;-65
2022/07/22 08:30:06;;;;;;;;;20.33;18.33;;;;;25.51;48.95;101318.16;4917552;28;46116;-68
2022/07/22 08:32:32;;;;;;;;;22.67;16.33;;;;;25.22;48.89;101273.28;4908663;28;45387;-69
2022/07/22 08:34:59;;;;;;;;;17.33;15.00;;;;;25.14;48.93;101265.28;4922410;28;45694;-70
2022/07/22 08:37:25;;;;;;;;;21.67;18.00;;;;;25.37;49.33;101307.56;4917891;28;45472;-64
2022/07/22 08:39:50;;;;;;;;;16.67;15.33;;;;;25.47;49.48;101314.59;4917200;28;47275;-68
2022/07/22 08:42:15;;;;;;;;;20.00;18.67;;;;;25.57;49.21;101320.72;4917042;28;45551;-66
2022/07/22 08:44:41;;;;;;;;;16.33;14.67;;;;;25.58;48.95;101325.25;4917291;28;45470;-65
2022/07/22 08:47:06;;;;;;;;;25.67;19.00;;;;;25.63;48.51;101323.28;4917446;28;45420;-69
2022/07/22 08:49:32;;;;;;;;;20.00;19.00;;;;;25.61;49.00;101316.09;4916696;28;45613;-70
2022/07/22 08:51:57;;;;;;;;;22.67;21.67;;;;;25.62;48.97;101304.19;4916111;28;45389;-65
2022/07/22 08:54:23;;;;;;;;;24.67;14.00;;;;;25.45;48.98;101249.94;4917348;28;45357;-67
2022/07/22 08:56:50;;;;;;;;;20.33;18.33;;;;;25.60;48.57;101257.69;4917183;28;45451;-65
2022/07/22 08:59:15;;;;;;;;;19.33;18.33;;;;;25.65;48.69;101252.09;4916456;28;45461;-66
2022/07/22 09:02:09;;;;;;;;;15.33;15.33;;;;;25.88;48.28;101266.00;4916773;28;45634;-62
2022/07/22 09:05:02;;;;;;;;;18.00;15.00;;;;;25.95;48.61;101247.56;4917119;28;45311;-65
2022/07/22 09:07:34;;;;;;;;;22.33;16.67;;;;;25.80;48.20;101198.75;4916901;28;45398;-69
2022/07/22 09:10:00;;;;;;;;;23.00;20.33;;;;;26.04;48.13;101213.59;4883846;28;46684;-62
2022/07/22 09:12:31;;;;;;;;;22.00;19.33;;;;;26.17;47.94;101215.00;4916563;28;45462;-66
2022/07/22 09:14:59;;;;;;;;;22.67;19.00;;;;;26.18;47.89;101235.94;4916682;28;45577;-65
2022/07/22 09:17:24;;;;;;;;;18.67;15.67;;;;;26.24;47.97;101252.19;4926653;28;45300;-73
2022/07/22 09:19:50;;;;;;;;;18.00;16.33;;;;;26.15;48.26;101248.84;4920279;28;46399;-63
2022/07/22 09:22:40;;;;;;;;;19.00;15.33;;;;;26.25;47.84;101255.81;4917534;28;45471;-69
2022/07/22 09:25:28;;;;;;;;;16.00;15.00;;;;;26.44;47.80;101283.56;4917439;28;45383;-68
2022/07/22 09:28:11;;;;;;;;;20.67;18.33;;;;;26.55;47.51;101294.19;4916021;28;45509;-66
2022/07/22 09:30:41;;;;;;;;;28.67;24.00;;;;;26.64;48.02;101305.78;4916236;28;46359;-61
2022/07/22 09:33:07;;;;;;;;;22.33;21.00;;;;;26.59;46.97;101290.41;4898946;28;45970;-70
2022/07/22 09:35:33;;;;;;;;;21.33;19.67;;;;;26.75;46.93;101302.72;4916527;28;45600;-63
2022/07/22 09:38:07;;;;;;;;;23.33;19.33;;;;;26.81;46.95;101305.25;4916826;28;45593;-65
2022/07/22 09:40:35;;;;;;;;;20.00;16.33;;;;;26.70;46.66;101269.06;4916251;28;46679;-64
2022/07/22 09:43:04;;;;;;;;;20.00;18.67;;;;;26.89;46.84;101279.41;4916118;28;45406;-61
2022/07/22 09:45:30;;;;;;;;;30.00;25.25;;;;;26.92;46.97;101258.28;4916174;28;45440;-66
2022/07/22 09:47:58;;;;;;;;;16.00;15.67;;;;;27.07;46.53;101255.97;4916437;28;45506;-62
2022/07/22 09:50:29;;;;;;;;;25.00;20.33;;;;;27.14;46.38;101266.69;4916324;28;45576;-66
2022/07/22 09:52:56;;;;;;;;;20.33;18.00;;;;;27.19;46.20;101271.97;4916686;28;45332;-61
2022/07/22 09:55:23;;;;;;;;;23.67;22.33;;;;;27.22;46.52;101274.63;4915922;28;45439;-66
2022/07/22 09:57:50;;;;;;;;;25.25;23.00;;;;;26.93;45.81;101224.44;4916061;28;45452;-67
2022/07/22 10:00:20;;;;;;;;;20.33;17.00;;;;;27.34;45.55;101277.00;4915715;28;45540;-65
2022/07/22 10:02:54;;;;;;;;;23.33;19.33;;;;;27.37;46.03;101273.22;4915390;28;45548;-71
2022/07/22 10:05:25;;;;;;;;;17.00;17.00;;;;;27.40;45.51;101281.34;4916230;28;45613;-60
2022/07/22 10:07:52;;;;;;;;;20.00;18.00;;;;;27.26;45.16;101251.63;4915772;28;45501;-65
2022/07/22 10:10:20;;;;;;;;;29.00;25.33;;;;;27.45;45.83;101272.97;4915887;28;46016;-69
2022/07/22 10:12:48;;;;;;;;;15.00;14.33;;;;;27.32;45.30;101253.28;4916305;28;45548;-63
2022/07/22 10:15:14;;;;;;;;;18.33;16.67;;;;;27.41;45.67;101263.94;4916053;28;45492;-66
2022/07/22 10:17:42;;;;;;;;;17.33;17.00;;;;;27.47;45.84;101273.78;4910465;28;45585;-64
2022/07/22 10:20:09;;;;;;;;;21.33;19.33;;;;;27.45;45.61;101268.34;4929827;28;45392;-62
2022/07/22 10:22:43;;;;;;;;;28.00;17.67;;;;;27.41;45.27;101265.81;4916077;28;45414;-65
2022/07/22 10:25:10;;;;;;;;;23.00;23.00;;;;;27.33;45.43;101263.31;4915779;28;45302;-65
2022/07/22 10:28:04;;;;;;;;;20.67;20.67;;;;;27.25;45.72;101260.81;4915810;28;45510;-63
2022/07/22 10:30:31;;;;;;;;;20.67;18.33;;;;;27.22;46.21;101258.16;4915580;28;45982;-62
2022/07/22 10:33:12;;;;;;;;;21.67;18.67;;;;;27.14;46.12;101254.78;4915440;28;45478;-70
2022/07/22 10:35:44;;;;;;;;;24.75;24.25;;;;;27.06;46.32;101246.84;4915341;28;45374;-61
2022/07/22 10:38:13;;;;;;;;;19.67;19.33;;;;;26.94;46.22;101239.94;4911908;28;45539;-64
2022/07/22 10:40:50;;;;;;;;;22.67;21.67;;;;;26.84;46.77;101246.66;4919002;28;46276;-65
2022/07/22 10:43:17;;;;;;;;;23.33;19.67;;;;;26.73;47.25;101246.13;4918693;28;45327;-60
2022/07/22 10:45:51;;;;;;;;;21.67;19.00;;;;;26.52;48.60;101218.44;4918454;28;45524;-69
2022/07/22 10:48:20;;;;;;;;;25.33;21.00;;;;;26.57;49.25;101216.44;4918885;28;45759;-63
2022/07/22 10:50:49;;;;;;;;;25.50;23.50;;;;;26.29;50.00;101148.84;4918800;28;46115;-61
2022/07/22 10:53:21;;;;;;;;;23.67;20.67;;;;;26.33;50.70;101162.47;4918438;28;45401;-65
2022/07/22 10:56:04;;;;;;;;;19.33;19.33;;;;;26.21;51.52;101128.16;4918633;28;45611;-61
2022/07/22 10:58:35;;;;;;;;;23.67;23.00;;;;;26.20;52.33;101142.78;4918799;28;45518;-63
2022/07/22 11:01:05;;;;;;;;;30.75;24.50;;;;;26.04;51.91;101115.00;4918122;28;45463;-61
2022/07/22 11:03:31;;;;;;;;;27.50;27.50;;;;;26.13;52.47;101141.19;4918106;28;45620;-63
2022/07/22 11:06:13;;;;;;;;;25.00;22.50;;;;;25.93;52.68;101102.50;4917880;28;45468;-65